sensor_id;sensor_type;location;lat;lon;timestamp;temperature;humidity
42187;DHT22;27858;51.414;0.018;2023-04-24T04:00:48;8.10;99.90
42187;DHT22;27858;51.414;0.018;2023-04-24T04:03:14;8.10;99.90
42187;DHT22;27858;51.414;0.018;2023-04-24T04:05:41;8.10;99.90
42187;DHT22;27858;51.414;0.018;2023-04-24T04:08:08;8.20;99.90
42187;DHT22;27858;51.414;0.018;2023-04-24T04:10:35;8.20;99.90
42187;DHT22;27858;51.414;0.018;2023-04-24T04:13:01;8.10;99.90
42187;DHT22;27858;51.414;0.018;2023-04-24T04:15:28;8.10;99.90
42187;DHT22;27858;51.414;0.018;2023-04-24T04:17:55;8.10;99.90
42187;DHT22;27858;51.414;0.018;2023-04-24T04:20:22;8.20;99.90
42187;DHT22;27858;51.414;0.018;2023-04-24T04:22:49;8.20;99.90
42187;DHT22;27858;51.414;0.018;2023-04-24T04:25:15;8.20;99.90
42187;DHT22;27858;51.414;0.018;2023-04-24T04:27:42;8.20;99.90
42187;DHT22;27858;51.414;0.018;2023-04-24T04:30:09;8.20;99.90
42187;DHT22;27858;51.414;0.018;2023-04-24T04:32:36;8.20;99.90
42187;DHT22;27858;51.414;0.018;2023-04-24T04:35:04;8.00;99.90
42187;DHT22;27858;51.414;0.018;2023-04-24T04:37:32;8.10;99.90
42187;DHT22;27858;51.414;0.018;2023-04-24T04:40:02;8.30;99.90
42187;DHT22;27858;51.414;0.018;2023-04-24T04:42:38;8.20;99.90
42187;DHT22;27858;51.414;0.018;2023-04-24T04:45:08;8.00;99.90
42187;DHT22;27858;51.414;0.018;2023-04-24T04:47:35;7.80;99.90
42187;DHT22;27858;51.414;0.018;2023-04-24T04:50:02;7.90;99.90
42187;DHT22;27858;51.414;0.018;2023-04-24T04:52:30;8.00;99.90
42187;DHT22;27858;51.414;0.018;2023-04-24T04:54:57;7.80;99.90
42187;DHT22;27858;51.414;0.018;2023-04-24T04:57:23;8.00;99.90
42187;DHT22;27858;51.414;0.018;2023-04-24T04:59:50;8.10;99.90
42187;DHT22;27858;51.414;0.018;2023-04-24T05:02:17;7.90;99.90
42187;DHT22;27858;51.414;0.018;2023-04-24T05:04:44;7.80;99.90
42187;DHT22;27858;51.414;0.018;2023-04-24T05:07:12;8.10;99.90
42187;DHT22;27858;51.414;0.018;2023-04-24T05:09:39;7.90;99.90
42187;DHT22;27858;51.414;0.018;2023-04-24T05:12:05;7.90;99.90
42187;DHT22;27858;51.414;0.018;2023-04-24T05:14:32;8.00;99.90
42187;DHT22;27858;51.414;0.018;2023-04-24T05:16:59;8.10;99.90
42187;DHT22;27858;51.414;0.018;2023-04-24T05:19:26;8.10;99.90
42187;DHT22;27858;51.414;0.018;2023-04-24T05:21:53;8.00;99.90
42187;DHT22;27858;51.414;0.018;2023-04-24T05:24:20;7.80;99.90
42187;DHT22;27858;51.414;0.018;2023-04-24T05:26:46;8.00;99.90
42187;DHT22;27858;51.414;0.018;2023-04-24T05:29:13;7.90;99.90
42187;DHT22;27858;51.414;0.018;2023-04-24T05:31:40;7.90;99.90
42187;DHT22;27858;51.414;0.018;2023-04-24T05:34:07;8.10;99.90
42187;DHT22;27858;51.414;0.018;2023-04-24T05:36:33;8.00;99.90
42187;DHT22;27858;51.414;0.018;2023-04-24T05:39:00;8.20;99.90
42187;DHT22;27858;51.414;0.018;2023-04-24T05:41:27;8.20;99.90
42187;DHT22;27858;51.414;0.018;2023-04-24T05:43:54;7.90;99.90
42187;DHT22;27858;51.414;0.018;2023-04-24T05:46:20;8.00;99.90
42187;DHT22;27858;51.414;0.018;2023-04-24T05:48:47;8.30;99.90
42187;DHT22;27858;51.414;0.018;2023-04-24T05:51:14;8.20;99.90
42187;DHT22;27858;51.414;0.018;2023-04-24T05:53:41;8.00;99.90
42187;DHT22;27858;51.414;0.018;2023-04-24T05:56:07;8.10;99.90
42187;DHT22;27858;51.414;0.018;2023-04-24T05:58:34;8.10;99.90
42187;DHT22;27858;51.414;0.018;2023-04-24T06:01:01;8.10;99.90
42187;DHT22;27858;51.414;0.018;2023-04-24T06:03:28;8.30;99.90
42187;DHT22;27858;51.414;0.018;2023-04-24T06:05:55;8.30;99.90
42187;DHT22;27858;51.414;0.018;2023-04-24T06:08:22;8.50;99.90
42187;DHT22;27858;51.414;0.018;2023-04-24T06:10:49;8.40;99.90
42187;DHT22;27858;51.414;0.018;2023-04-24T06:13:16;8.40;99.90
42187;DHT22;27858;51.414;0.018;2023-04-24T06:15:43;8.60;99.90
42187;DHT22;27858;51.414;0.018;2023-04-24T06:18:10;8.60;99.90
42187;DHT22;27858;51.414;0.018;2023-04-24T06:20:37;8.60;99.90
42187;DHT22;27858;51.414;0.018;2023-04-24T06:23:04;8.80;99.90
42187;DHT22;27858;51.414;0.018;2023-04-24T06:25:30;8.60;99.90
42187;DHT22;27858;51.414;0.018;2023-04-24T06:27:58;8.60;99.90
42187;DHT22;27858;51.414;0.018;2023-04-24T06:30:24;8.70;99.90
42187;DHT22;27858;51.414;0.018;2023-04-24T06:32:52;8.90;99.90
42187;DHT22;27858;51.414;0.018;2023-04-24T06:37:46;8.90;99.90
42187;DHT22;27858;51.414;0.018;2023-04-24T06:40:13;8.70;99.90
42187;DHT22;27858;51.414;0.018;2023-04-24T06:42:40;8.80;99.90
42187;DHT22;27858;51.414;0.018;2023-04-24T06:45:07;8.80;99.90
42187;DHT22;27858;51.414;0.018;2023-04-24T06:47:34;8.80;99.90
42187;DHT22;27858;51.414;0.018;2023-04-24T06:50:01;9.00;99.90
42187;DHT22;27858;51.414;0.018;2023-04-24T06:52:28;8.80;99.90
42187;DHT22;27858;51.414;0.018;2023-04-24T06:55:00;8.90;99.90
42187;DHT22;27858;51.414;0.018;2023-04-24T06:57:28;8.90;99.90
42187;DHT22;27858;51.414;0.018;2023-04-24T06:59:55;9.00;99.90
42187;DHT22;27858;51.414;0.018;2023-04-24T07:02:22;8.80;99.90
42187;DHT22;27858;51.414;0.018;2023-04-24T07:04:49;8.90;99.90
42187;DHT22;27858;51.414;0.018;2023-04-24T07:07:16;9.00;99.90
42187;DHT22;27858;51.414;0.018;2023-04-24T07:09:43;8.90;99.90
42187;DHT22;27858;51.414;0.018;2023-04-24T07:12:11;9.00;99.90
42187;DHT22;27858;51.414;0.018;2023-04-24T07:14:38;9.00;99.90
42187;DHT22;27858;51.414;0.018;2023-04-24T07:17:05;9.00;99.90
42187;DHT22;27858;51.414;0.018;2023-04-24T07:19:35;8.90;99.90
42187;DHT22;27858;51.414;0.018;2023-04-24T07:22:02;9.00;99.90
42187;DHT22;27858;51.414;0.018;2023-04-24T07:24:30;9.10;99.90
42187;DHT22;27858;51.414;0.018;2023-04-24T07:26:59;9.10;99.90
42187;DHT22;27858;51.414;0.018;2023-04-24T07:29:27;9.00;99.90
42187;DHT22;27858;51.414;0.018;2023-04-24T07:31:54;9.00;99.90
42187;DHT22;27858;51.414;0.018;2023-04-24T07:34:21;9.10;99.90
42187;DHT22;27858;51.414;0.018;2023-04-24T07:36:50;9.20;99.90
42187;DHT22;27858;51.414;0.018;2023-04-24T07:39:18;9.10;99.90
42187;DHT22;27858;51.414;0.018;2023-04-24T07:41:44;9.20;99.90
42187;DHT22;27858;51.414;0.018;2023-04-24T07:44:11;9.20;99.90
42187;DHT22;27858;51.414;0.018;2023-04-24T07:46:38;9.20;99.90
42187;DHT22;27858;51.414;0.018;2023-04-24T07:49:05;9.30;99.90
42187;DHT22;27858;51.414;0.018;2023-04-24T07:51:40;9.40;99.90
42187;DHT22;27858;51.414;0.018;2023-04-24T07:54:08;9.30;99.90
42187;DHT22;27858;51.414;0.018;2023-04-24T07:56:34;9.30;99.90
42187;DHT22;27858;51.414;0.018;2023-04-24T07:59:05;9.40;99.90
42187;DHT22;27858;51.414;0.018;2023-04-24T08:01:32;9.40;99.90
42187;DHT22;27858;51.414;0.018;2023-04-24T08:03:59;9.50;99.90
42187;DHT22;27858;51.414;0.018;2023-04-24T08:06:26;9.50;99.90
42187;DHT22;27858;51.414;0.018;2023-04-24T08:08:57;9.50;99.90
42187;DHT22;27858;51.414;0.018;2023-04-24T08:11:24;9.60;99.90
42187;DHT22;27858;51.414;0.018;2023-04-24T08:13:52;9.70;99.90
42187;DHT22;27858;51.414;0.018;2023-04-24T08:16:18;9.80;99.90
42187;DHT22;27858;51.414;0.018;2023-04-24T08:18:45;9.70;99.90
42187;DHT22;27858;51.414;0.018;2023-04-24T08:21:12;9.80;99.90
42187;DHT22;27858;51.414;0.018;2023-04-24T08:23:43;9.80;99.90
42187;DHT22;27858;51.414;0.018;2023-04-24T08:26:11;9.80;99.90
42187;DHT22;27858;51.414;0.018;2023-04-24T08:28:38;9.90;99.90
42187;DHT22;27858;51.414;0.018;2023-04-24T08:31:05;10.00;99.90
42187;DHT22;27858;51.414;0.018;2023-04-24T08:33:32;10.10;99.90
42187;DHT22;27858;51.414;0.018;2023-04-24T08:36:05;10.10;99.90
42187;DHT22;27858;51.414;0.018;2023-04-24T08:38:33;10.10;99.90
42187;DHT22;27858;51.414;0.018;2023-04-24T08:41:01;10.10;99.90
42187;DHT22;27858;51.414;0.018;2023-04-24T08:43:28;10.10;99.90
42187;DHT22;27858;51.414;0.018;2023-04-24T08:45:56;10.10;99.90
42187;DHT22;27858;51.414;0.018;2023-04-24T08:48:23;10.30;99.90
42187;DHT22;27858;51.414;0.018;2023-04-24T08:50:58;10.20;99.90
42187;DHT22;27858;51.414;0.018;2023-04-24T08:53:26;10.40;99.90
42187;DHT22;27858;51.414;0.018;2023-04-24T08:55:54;10.70;99.90
42187;DHT22;27858;51.414;0.018;2023-04-24T08:58:24;10.70;99.90
42187;DHT22;27858;51.414;0.018;2023-04-24T09:00:54;10.80;99.90
42187;DHT22;27858;51.414;0.018;2023-04-24T09:03:22;11.00;99.90
42187;DHT22;27858;51.414;0.018;2023-04-24T09:05:49;11.10;99.90
42187;DHT22;27858;51.414;0.018;2023-04-24T09:08:18;11.20;99.90
42187;DHT22;27858;51.414;0.018;2023-04-24T09:10:46;11.00;99.90
42187;DHT22;27858;51.414;0.018;2023-04-24T09:13:17;10.80;99.90
42187;DHT22;27858;51.414;0.018;2023-04-24T09:15:45;10.90;99.90
42187;DHT22;27858;51.414;0.018;2023-04-24T09:18:11;11.10;99.90
42187;DHT22;27858;51.414;0.018;2023-04-24T09:20:58;11.20;99.90
42187;DHT22;27858;51.414;0.018;2023-04-24T09:23:29;11.10;99.90
42187;DHT22;27858;51.414;0.018;2023-04-24T09:25:57;11.10;99.90
42187;DHT22;27858;51.414;0.018;2023-04-24T09:28:32;11.20;99.90
42187;DHT22;27858;51.414;0.018;2023-04-24T09:31:09;11.00;99.90
42187;DHT22;27858;51.414;0.018;2023-04-24T09:33:36;11.20;99.90
42187;DHT22;27858;51.414;0.018;2023-04-24T09:36:04;11.30;99.90
42187;DHT22;27858;51.414;0.018;2023-04-24T09:38:36;11.50;99.90
42187;DHT22;27858;51.414;0.018;2023-04-24T09:41:08;11.60;99.90
42187;DHT22;27858;51.414;0.018;2023-04-24T09:43:35;11.60;95.80
42187;DHT22;27858;51.414;0.018;2023-04-24T09:46:07;11.70;90.70
42187;DHT22;27858;51.414;0.018;2023-04-24T09:48:36;11.80;99.90
42187;DHT22;27858;51.414;0.018;2023-04-24T09:51:05;12.00;99.90
42187;DHT22;27858;51.414;0.018;2023-04-24T09:53:37;11.90;47.60
42187;DHT22;27858;51.414;0.018;2023-04-24T09:56:09;11.90;38.80
42187;DHT22;27858;51.414;0.018;2023-04-24T09:58:36;11.90;34.50
42187;DHT22;27858;51.414;0.018;2023-04-24T10:01:03;11.80;29.40
42187;DHT22;27858;51.414;0.018;2023-04-24T10:03:31;12.10;99.40
42187;DHT22;27858;51.414;0.018;2023-04-24T10:06:02;12.20;80.20
42187;DHT22;27858;51.414;0.018;2023-04-24T10:08:36;12.30;74.50
42187;DHT22;27858;51.414;0.018;2023-04-24T10:11:04;12.40;99.50
42187;DHT22;27858;51.414;0.018;2023-04-24T10:13:32;12.40;25.90
42187;DHT22;27858;51.414;0.018;2023-04-24T10:16:00;12.60;53.40
42187;DHT22;27858;51.414;0.018;2023-04-24T10:18:28;12.70;71.60
42187;DHT22;27858;51.414;0.018;2023-04-24T10:20:54;12.60;26.10
42187;DHT22;27858;51.414;0.018;2023-04-24T10:23:24;12.60;1.00
42187;DHT22;27858;51.414;0.018;2023-04-24T10:25:52;12.60;64.40
42187;DHT22;27858;51.414;0.018;2023-04-24T10:28:20;12.70;20.80
42187;DHT22;27858;51.414;0.018;2023-04-24T10:30:48;12.70;59.10
42187;DHT22;27858;51.414;0.018;2023-04-24T10:33:17;12.70;29.90
42187;DHT22;27858;51.414;0.018;2023-04-24T10:35:45;12.80;1.00
42187;DHT22;27858;51.414;0.018;2023-04-24T10:38:22;12.80;1.00
42187;DHT22;27858;51.414;0.018;2023-04-24T10:40:51;12.80;1.00
42187;DHT22;27858;51.414;0.018;2023-04-24T10:43:18;12.80;1.00
42187;DHT22;27858;51.414;0.018;2023-04-24T10:46:05;12.90;6.50
42187;DHT22;27858;51.414;0.018;2023-04-24T10:48:33;12.50;1.00
42187;DHT22;27858;51.414;0.018;2023-04-24T10:51:00;12.40;1.00
42187;DHT22;27858;51.414;0.018;2023-04-24T10:53:29;12.50;1.00
42187;DHT22;27858;51.414;0.018;2023-04-24T10:56:04;12.50;1.00
42187;DHT22;27858;51.414;0.018;2023-04-24T10:58:41;12.40;1.00
42187;DHT22;27858;51.414;0.018;2023-04-24T11:01:30;12.70;4.80
42187;DHT22;27858;51.414;0.018;2023-04-24T11:04:00;12.90;1.00
42187;DHT22;27858;51.414;0.018;2023-04-24T11:06:31;12.80;1.00
42187;DHT22;27858;51.414;0.018;2023-04-24T11:09:10;12.90;1.00
42187;DHT22;27858;51.414;0.018;2023-04-24T11:11:45;12.80;1.00
42187;DHT22;27858;51.414;0.018;2023-04-24T11:14:14;12.80;1.00
42187;DHT22;27858;51.414;0.018;2023-04-24T11:21:42;13.10;1.00
42187;DHT22;27858;51.414;0.018;2023-04-24T11:26:57;13.30;1.00
42187;DHT22;27858;51.414;0.018;2023-04-24T11:34:59;13.70;1.00
42187;DHT22;27858;51.414;0.018;2023-04-24T11:37:38;13.60;99.90
42187;DHT22;27858;51.414;0.018;2023-04-24T11:40:10;13.50;1.00
42187;DHT22;27858;51.414;0.018;2023-04-24T11:42:39;13.30;99.90
42187;DHT22;27858;51.414;0.018;2023-04-24T11:45:23;13.30;99.90
42187;DHT22;27858;51.414;0.018;2023-04-24T11:47:50;13.60;1.00
42187;DHT22;27858;51.414;0.018;2023-04-24T11:50:20;13.80;1.00
42187;DHT22;27858;51.414;0.018;2023-04-24T11:52:49;13.70;99.90
42187;DHT22;27858;51.414;0.018;2023-04-24T11:57:50;13.90;1.00
42187;DHT22;27858;51.414;0.018;2023-04-24T12:00:20;13.90;13.20
42187;DHT22;27858;51.414;0.018;2023-04-24T12:02:47;14.10;1.00
42187;DHT22;27858;51.414;0.018;2023-04-24T12:05:27;14.10;99.90
42187;DHT22;27858;51.414;0.018;2023-04-24T12:07:55;14.10;1.00
42187;DHT22;27858;51.414;0.018;2023-04-24T12:10:23;14.30;1.00
42187;DHT22;27858;51.414;0.018;2023-04-24T12:12:51;14.40;99.90
42187;DHT22;27858;51.414;0.018;2023-04-24T12:15:21;14.50;99.90
42187;DHT22;27858;51.414;0.018;2023-04-24T12:17:50;14.60;99.90
42187;DHT22;27858;51.414;0.018;2023-04-24T12:20:23;14.50;99.90
42187;DHT22;27858;51.414;0.018;2023-04-24T12:22:51;14.70;99.90
42187;DHT22;27858;51.414;0.018;2023-04-24T12:25:21;14.90;99.90
42187;DHT22;27858;51.414;0.018;2023-04-24T12:27:54;14.80;99.90
42187;DHT22;27858;51.414;0.018;2023-04-24T12:30:26;14.70;99.90
42187;DHT22;27858;51.414;0.018;2023-04-24T12:32:53;14.50;99.90
42187;DHT22;27858;51.414;0.018;2023-04-24T12:35:24;14.40;99.90
42187;DHT22;27858;51.414;0.018;2023-04-24T12:37:51;14.30;99.90
42187;DHT22;27858;51.414;0.018;2023-04-24T12:40:19;14.20;99.90
42187;DHT22;27858;51.414;0.018;2023-04-24T12:42:49;14.30;99.90
42187;DHT22;27858;51.414;0.018;2023-04-24T12:45:18;14.30;99.90
42187;DHT22;27858;51.414;0.018;2023-04-24T12:47:46;14.60;99.90
42187;DHT22;27858;51.414;0.018;2023-04-24T12:50:15;14.90;99.90
42187;DHT22;27858;51.414;0.018;2023-04-24T12:52:43;14.70;99.90
42187;DHT22;27858;51.414;0.018;2023-04-24T12:55:10;15.00;99.90
42187;DHT22;27858;51.414;0.018;2023-04-24T12:57:39;15.10;99.90
42187;DHT22;27858;51.414;0.018;2023-04-24T13:00:07;15.10;99.90
42187;DHT22;27858;51.414;0.018;2023-04-24T13:02:35;14.80;99.90
42187;DHT22;27858;51.414;0.018;2023-04-24T13:05:03;14.60;99.90
42187;DHT22;27858;51.414;0.018;2023-04-24T13:07:30;14.60;99.90
42187;DHT22;27858;51.414;0.018;2023-04-24T13:09:57;14.60;99.90
42187;DHT22;27858;51.414;0.018;2023-04-24T13:12:24;14.70;99.90
42187;DHT22;27858;51.414;0.018;2023-04-24T13:14:52;14.80;99.90
42187;DHT22;27858;51.414;0.018;2023-04-24T13:17:19;15.10;99.90
42187;DHT22;27858;51.414;0.018;2023-04-24T13:19:48;15.00;99.90
42187;DHT22;27858;51.414;0.018;2023-04-24T13:22:16;15.00;99.90
42187;DHT22;27858;51.414;0.018;2023-04-24T13:24:44;15.00;99.90
42187;DHT22;27858;51.414;0.018;2023-04-24T13:27:11;15.20;99.90
42187;DHT22;27858;51.414;0.018;2023-04-24T13:29:38;15.30;99.90
42187;DHT22;27858;51.414;0.018;2023-04-24T13:32:04;15.70;99.90
42187;DHT22;27858;51.414;0.018;2023-04-24T13:34:32;15.90;99.90
42187;DHT22;27858;51.414;0.018;2023-04-24T13:37:01;16.30;99.90
42187;DHT22;27858;51.414;0.018;2023-04-24T13:39:30;16.90;99.90
42187;DHT22;27858;51.414;0.018;2023-04-24T13:41:59;17.10;99.90
42187;DHT22;27858;51.414;0.018;2023-04-24T13:44:29;17.20;99.90
42187;DHT22;27858;51.414;0.018;2023-04-24T13:46:57;17.50;99.90
42187;DHT22;27858;51.414;0.018;2023-04-24T13:49:24;17.80;99.90
42187;DHT22;27858;51.414;0.018;2023-04-24T13:51:53;18.10;99.90
42187;DHT22;27858;51.414;0.018;2023-04-24T13:54:20;17.70;99.90
42187;DHT22;27858;51.414;0.018;2023-04-24T13:56:49;17.30;99.90
42187;DHT22;27858;51.414;0.018;2023-04-24T13:59:16;16.90;99.90
42187;DHT22;27858;51.414;0.018;2023-04-24T14:01:43;16.90;99.90
42187;DHT22;27858;51.414;0.018;2023-04-24T14:04:11;16.90;99.90
42187;DHT22;27858;51.414;0.018;2023-04-24T14:06:39;16.60;99.90
42187;DHT22;27858;51.414;0.018;2023-04-24T14:09:06;16.50;99.90
42187;DHT22;27858;51.414;0.018;2023-04-24T14:11:34;16.30;99.90
42187;DHT22;27858;51.414;0.018;2023-04-24T14:14:01;16.10;99.90
42187;DHT22;27858;51.414;0.018;2023-04-24T14:16:28;16.20;99.90
42187;DHT22;27858;51.414;0.018;2023-04-24T14:18:55;16.20;99.90
42187;DHT22;27858;51.414;0.018;2023-04-24T14:21:22;16.40;99.90
42187;DHT22;27858;51.414;0.018;2023-04-24T14:23:49;16.40;99.90
42187;DHT22;27858;51.414;0.018;2023-04-24T14:26:16;16.50;99.90
42187;DHT22;27858;51.414;0.018;2023-04-24T14:28:43;16.50;99.90
42187;DHT22;27858;51.414;0.018;2023-04-24T14:31:11;16.60;99.90
42187;DHT22;27858;51.414;0.018;2023-04-24T14:33:37;16.80;99.90
42187;DHT22;27858;51.414;0.018;2023-04-24T14:36:04;17.00;99.90
42187;DHT22;27858;51.414;0.018;2023-04-24T14:38:32;17.00;99.90
42187;DHT22;27858;51.414;0.018;2023-04-24T14:40:59;16.80;99.90
42187;DHT22;27858;51.414;0.018;2023-04-24T14:43:30;16.70;99.90
42187;DHT22;27858;51.414;0.018;2023-04-24T14:45:57;16.80;99.90
42187;DHT22;27858;51.414;0.018;2023-04-24T14:48:24;16.80;99.90
42187;DHT22;27858;51.414;0.018;2023-04-24T14:50:51;16.50;99.90
42187;DHT22;27858;51.414;0.018;2023-04-24T14:53:18;16.60;99.90
42187;DHT22;27858;51.414;0.018;2023-04-24T14:55:45;16.50;99.90
42187;DHT22;27858;51.414;0.018;2023-04-24T14:58:12;16.30;99.90
42187;DHT22;27858;51.414;0.018;2023-04-24T15:00:38;16.20;99.90
42187;DHT22;27858;51.414;0.018;2023-04-24T15:03:05;16.10;99.90
42187;DHT22;27858;51.414;0.018;2023-04-24T15:05:33;15.90;99.90
42187;DHT22;27858;51.414;0.018;2023-04-24T15:08:00;15.50;99.90
42187;DHT22;27858;51.414;0.018;2023-04-24T15:10:27;15.50;99.90
42187;DHT22;27858;51.414;0.018;2023-04-24T15:12:55;15.50;99.90
42187;DHT22;27858;51.414;0.018;2023-04-24T15:15:22;15.30;99.90
42187;DHT22;27858;51.414;0.018;2023-04-24T15:17:49;15.20;99.90
42187;DHT22;27858;51.414;0.018;2023-04-24T15:20:16;15.00;99.90
42187;DHT22;27858;51.414;0.018;2023-04-24T15:22:42;14.70;99.90
42187;DHT22;27858;51.414;0.018;2023-04-24T15:25:13;14.60;99.90
42187;DHT22;27858;51.414;0.018;2023-04-24T15:27:44;14.10;99.90
42187;DHT22;27858;51.414;0.018;2023-04-24T15:30:12;12.60;99.90
42187;DHT22;27858;51.414;0.018;2023-04-24T15:32:39;11.60;99.90
42187;DHT22;27858;51.414;0.018;2023-04-24T15:35:07;11.30;1.00
42187;DHT22;27858;51.414;0.018;2023-04-24T15:37:37;10.50;99.90
42187;DHT22;27858;51.414;0.018;2023-04-24T15:40:04;10.10;99.90
42187;DHT22;27858;51.414;0.018;2023-04-24T15:42:34;9.80;99.90
42187;DHT22;27858;51.414;0.018;2023-04-24T15:45:01;9.50;99.90
42187;DHT22;27858;51.414;0.018;2023-04-24T15:47:28;9.00;99.90
42187;DHT22;27858;51.414;0.018;2023-04-24T15:49:55;9.30;99.90
42187;DHT22;27858;51.414;0.018;2023-04-24T15:52:21;9.00;99.90
42187;DHT22;27858;51.414;0.018;2023-04-24T15:54:49;9.30;99.90
42187;DHT22;27858;51.414;0.018;2023-04-24T15:57:16;9.50;99.90
42187;DHT22;27858;51.414;0.018;2023-04-24T15:59:43;8.90;99.90
42187;DHT22;27858;51.414;0.018;2023-04-24T16:02:12;9.40;99.90
42187;DHT22;27858;51.414;0.018;2023-04-24T16:04:49;9.30;99.90
42187;DHT22;27858;51.414;0.018;2023-04-24T16:07:16;9.50;99.90
42187;DHT22;27858;51.414;0.018;2023-04-24T16:09:44;9.00;99.90
42187;DHT22;27858;51.414;0.018;2023-04-24T16:12:11;9.10;99.90
42187;DHT22;27858;51.414;0.018;2023-04-24T16:14:38;8.60;99.90
42187;DHT22;27858;51.414;0.018;2023-04-24T16:17:05;9.10;99.90
42187;DHT22;27858;51.414;0.018;2023-04-24T16:19:32;9.00;99.90
42187;DHT22;27858;51.414;0.018;2023-04-24T16:22:00;9.00;99.90
42187;DHT22;27858;51.414;0.018;2023-04-24T16:24:27;8.90;99.90
42187;DHT22;27858;51.414;0.018;2023-04-24T16:26:55;8.60;99.90
42187;DHT22;27858;51.414;0.018;2023-04-24T16:29:22;8.50;99.90
42187;DHT22;27858;51.414;0.018;2023-04-24T16:31:48;9.10;99.90
42187;DHT22;27858;51.414;0.018;2023-04-24T16:34:16;8.80;99.90
42187;DHT22;27858;51.414;0.018;2023-04-24T16:36:43;9.10;99.90
42187;DHT22;27858;51.414;0.018;2023-04-24T16:39:11;9.10;99.90
42187;DHT22;27858;51.414;0.018;2023-04-24T16:41:39;8.50;99.90
42187;DHT22;27858;51.414;0.018;2023-04-24T16:44:06;8.60;99.90
42187;DHT22;27858;51.414;0.018;2023-04-24T16:46:33;9.20;99.90
42187;DHT22;27858;51.414;0.018;2023-04-24T16:49:00;9.20;99.90
42187;DHT22;27858;51.414;0.018;2023-04-24T16:51:27;9.20;99.90
42187;DHT22;27858;51.414;0.018;2023-04-24T16:53:54;9.20;99.90
42187;DHT22;27858;51.414;0.018;2023-04-24T16:56:21;8.70;99.90
42187;DHT22;27858;51.414;0.018;2023-04-24T16:58:48;9.20;99.90
42187;DHT22;27858;51.414;0.018;2023-04-24T17:01:15;9.20;99.90
42187;DHT22;27858;51.414;0.018;2023-04-24T17:03:42;8.80;99.90
42187;DHT22;27858;51.414;0.018;2023-04-24T17:06:09;8.70;99.90
42187;DHT22;27858;51.414;0.018;2023-04-24T17:08:36;9.20;99.90
42187;DHT22;27858;51.414;0.018;2023-04-24T17:11:03;8.50;99.90
42187;DHT22;27858;51.414;0.018;2023-04-24T17:13:30;8.70;99.90
42187;DHT22;27858;51.414;0.018;2023-04-24T17:15:57;9.00;99.90
42187;DHT22;27858;51.414;0.018;2023-04-24T17:18:23;8.50;99.90
42187;DHT22;27858;51.414;0.018;2023-04-24T17:20:50;8.70;99.90
42187;DHT22;27858;51.414;0.018;2023-04-24T17:23:17;8.60;99.90
42187;DHT22;27858;51.414;0.018;2023-04-24T17:25:45;9.00;99.90
42187;DHT22;27858;51.414;0.018;2023-04-24T17:28:29;8.60;99.90
42187;DHT22;27858;51.414;0.018;2023-04-24T17:30:56;8.90;99.90
42187;DHT22;27858;51.414;0.018;2023-04-24T17:33:28;8.90;99.90
42187;DHT22;27858;51.414;0.018;2023-04-24T17:35:56;8.80;99.90
42187;DHT22;27858;51.414;0.018;2023-04-24T17:38:24;8.70;99.90
42187;DHT22;27858;51.414;0.018;2023-04-24T17:40:51;8.50;99.90
42187;DHT22;27858;51.414;0.018;2023-04-24T17:43:22;8.70;99.90
42187;DHT22;27858;51.414;0.018;2023-04-24T17:45:50;8.70;99.90
42187;DHT22;27858;51.414;0.018;2023-04-24T17:48:18;8.50;99.90
42187;DHT22;27858;51.414;0.018;2023-04-24T17:50:45;8.40;99.90
42187;DHT22;27858;51.414;0.018;2023-04-24T17:53:12;8.50;99.90
42187;DHT22;27858;51.414;0.018;2023-04-24T17:55:39;8.90;99.90
42187;DHT22;27858;51.414;0.018;2023-04-24T17:58:09;8.50;99.90
42187;DHT22;27858;51.414;0.018;2023-04-24T18:00:37;8.40;99.90
42187;DHT22;27858;51.414;0.018;2023-04-24T18:03:05;8.40;99.90
42187;DHT22;27858;51.414;0.018;2023-04-24T18:05:36;8.70;99.90
42187;DHT22;27858;51.414;0.018;2023-04-24T18:08:04;8.60;99.90
42187;DHT22;27858;51.414;0.018;2023-04-24T18:10:32;8.40;99.90
42187;DHT22;27858;51.414;0.018;2023-04-24T18:13:01;8.50;99.90
42187;DHT22;27858;51.414;0.018;2023-04-24T18:15:28;8.70;99.90
42187;DHT22;27858;51.414;0.018;2023-04-24T18:17:55;8.00;99.90
42187;DHT22;27858;51.414;0.018;2023-04-24T18:20:22;8.60;99.90
42187;DHT22;27858;51.414;0.018;2023-04-24T18:22:49;8.10;99.90
42187;DHT22;27858;51.414;0.018;2023-04-24T18:25:15;7.80;99.90
42187;DHT22;27858;51.414;0.018;2023-04-24T18:27:43;8.10;99.90
42187;DHT22;27858;51.414;0.018;2023-04-24T18:30:10;8.30;99.90
42187;DHT22;27858;51.414;0.018;2023-04-24T18:32:40;8.30;99.90
42187;DHT22;27858;51.414;0.018;2023-04-24T18:35:08;8.10;99.90
42187;DHT22;27858;51.414;0.018;2023-04-24T18:37:35;7.60;99.90
42187;DHT22;27858;51.414;0.018;2023-04-24T18:40:02;8.10;99.90
42187;DHT22;27858;51.414;0.018;2023-04-24T18:42:29;7.70;99.90
42187;DHT22;27858;51.414;0.018;2023-04-24T18:44:56;7.40;99.90
42187;DHT22;27858;51.414;0.018;2023-04-24T18:47:27;7.20;99.90
42187;DHT22;27858;51.414;0.018;2023-04-24T18:49:54;7.70;99.90
42187;DHT22;27858;51.414;0.018;2023-04-24T18:52:22;7.70;99.90
42187;DHT22;27858;51.414;0.018;2023-04-24T18:54:49;7.60;99.90
42187;DHT22;27858;51.414;0.018;2023-04-24T18:57:16;7.60;99.90
42187;DHT22;27858;51.414;0.018;2023-04-24T18:59:43;7.50;99.90
42187;DHT22;27858;51.414;0.018;2023-04-24T19:02:09;7.40;99.90
42187;DHT22;27858;51.414;0.018;2023-04-24T19:04:37;6.90;99.90
42187;DHT22;27858;51.414;0.018;2023-04-24T19:07:03;7.40;99.90
42187;DHT22;27858;51.414;0.018;2023-04-24T19:09:30;7.40;99.90
42187;DHT22;27858;51.414;0.018;2023-04-24T19:11:57;6.90;99.90
42187;DHT22;27858;51.414;0.018;2023-04-24T19:14:27;6.90;99.90
42187;DHT22;27858;51.414;0.018;2023-04-24T19:16:53;6.70;99.90
42187;DHT22;27858;51.414;0.018;2023-04-24T19:19:20;6.90;99.90
42187;DHT22;27858;51.414;0.018;2023-04-24T19:21:49;6.80;99.90
42187;DHT22;27858;51.414;0.018;2023-04-24T19:24:16;7.00;99.90
42187;DHT22;27858;51.414;0.018;2023-04-24T19:26:44;6.90;99.90
42187;DHT22;27858;51.414;0.018;2023-04-24T19:29:12;6.70;99.90
42187;DHT22;27858;51.414;0.018;2023-04-24T19:31:38;7.00;99.90
42187;DHT22;27858;51.414;0.018;2023-04-24T19:34:06;7.00;99.90
42187;DHT22;27858;51.414;0.018;2023-04-24T19:36:33;7.20;99.90
42187;DHT22;27858;51.414;0.018;2023-04-24T19:39:00;7.10;99.90
42187;DHT22;27858;51.414;0.018;2023-04-24T19:41:27;7.10;99.90
42187;DHT22;27858;51.414;0.018;2023-04-24T19:43:53;6.60;99.90
42187;DHT22;27858;51.414;0.018;2023-04-24T19:46:20;7.00;99.90
42187;DHT22;27858;51.414;0.018;2023-04-24T19:48:47;6.70;99.90
42187;DHT22;27858;51.414;0.018;2023-04-24T19:51:15;6.90;99.90
42187;DHT22;27858;51.414;0.018;2023-04-24T19:53:41;7.10;99.90
42187;DHT22;27858;51.414;0.018;2023-04-24T19:56:09;7.10;99.90
42187;DHT22;27858;51.414;0.018;2023-04-24T19:58:36;7.20;99.90
42187;DHT22;27858;51.414;0.018;2023-04-24T20:01:02;7.20;99.90
42187;DHT22;27858;51.414;0.018;2023-04-24T20:03:31;6.70;99.90